KFTN

Carrizo Springs

Carrizo Springs, Texas, USA
METAR KFTN 151235Z AUTO 07005KT 10SM CLR 01/M01 A3032 RMK A01
Observed Flight Rules
Nov-15 @ 12:35 UTC (7 minutes ago) Visual Flight Rules
Wind Visibility Clouds
70° at 5 knots 10 miles
  • Clear skies
Temperatures Readings
Current 1°C / 34°F
Dewpoint -1°C / 30°F
Humidity 87%
Altimeter 30.32" Hg
Pressure 1027 hPa
Elevation 236
METAR KFTN 151235Z AUTO 07005KT 10SM CLR 01/M01 A3032 RMK A01
Observed Flight Rules
Nov-15 @ 12:35 UTC
(7 minutes ago)
VFR
Wind Visibility
70° at 5 knots 10 miles
Clouds
  • Clear skies
Temperature Dewpoint
1°C / 34°F -1°C / 30°F
Humidity Altimeter Pressure
87% 30.32" Hg 1027 hPa